createdAt,value
2022-09-27T00:00:07.869Z,11.91
2022-09-27T00:02:36.029Z,12.33
2022-09-27T00:05:02.641Z,12.60
2022-09-27T00:07:29.444Z,12.27
2022-09-27T00:09:55.950Z,12.28
2022-09-27T00:12:22.492Z,11.72
2022-09-27T00:14:48.998Z,11.50
2022-09-27T00:17:15.510Z,11.80
2022-09-27T00:19:42.146Z,11.77
2022-09-27T00:22:08.720Z,11.95
2022-09-27T00:24:35.373Z,12.16
2022-09-27T00:27:01.905Z,11.99
2022-09-27T00:29:29.000Z,12.05
2022-09-27T00:31:55.605Z,12.12
2022-09-27T00:34:25.032Z,12.08
2022-09-27T00:36:52.410Z,12.22
2022-09-27T00:39:19.381Z,11.99
2022-09-27T00:41:46.002Z,11.88
2022-09-27T00:44:33.558Z,12.28
2022-09-27T00:47:03.969Z,11.86
2022-09-27T00:49:33.047Z,11.70
2022-09-27T00:52:07.442Z,11.79
2022-09-27T00:54:34.978Z,11.73
2022-09-27T00:57:02.412Z,11.67
2022-09-27T00:59:51.266Z,11.81
2022-09-27T01:02:18.570Z,11.67
2022-09-27T01:04:45.972Z,11.25
2022-09-27T01:07:12.484Z,11.28
2022-09-27T01:09:39.194Z,11.33
2022-09-27T01:12:34.691Z,11.43
2022-09-27T01:15:07.164Z,11.52
2022-09-27T01:18:02.137Z,11.72
2022-09-27T01:20:37.616Z,11.45
2022-09-27T01:23:26.446Z,11.86
2022-09-27T01:26:14.613Z,11.74
2022-09-27T01:29:03.322Z,11.60
2022-09-27T01:31:42.855Z,11.37
2022-09-27T01:34:46.949Z,12.03
2022-09-27T01:37:22.535Z,12.03
2022-09-27T01:39:54.495Z,11.66
2022-09-27T01:42:27.678Z,11.57
2022-09-27T01:45:06.293Z,11.59
2022-09-27T01:47:42.324Z,12.03
2022-09-27T01:50:14.034Z,11.44
2022-09-27T01:52:44.557Z,11.97
2022-09-27T01:55:14.681Z,11.41
2022-09-27T01:57:44.207Z,11.95
2022-09-27T02:00:12.646Z,11.88
2022-09-27T02:02:52.684Z,12.09
2022-09-27T02:05:20.917Z,12.27
2022-09-27T02:07:56.511Z,11.68
2022-09-27T02:10:27.237Z,11.56
2022-09-27T02:13:24.345Z,11.33
2022-09-27T02:16:10.089Z,11.54
2022-09-27T02:18:52.467Z,11.76
2022-09-27T02:21:20.869Z,11.56
2022-09-27T02:23:51.142Z,11.52
2022-09-27T02:26:22.578Z,11.52
2022-09-27T02:29:06.040Z,11.14
2022-09-27T02:31:33.120Z,11.65
2022-09-27T02:34:03.802Z,11.08
2022-09-27T02:36:30.875Z,11.49
2022-09-27T02:38:57.502Z,11.81
2022-09-27T02:41:24.132Z,11.49
2022-09-27T02:43:55.745Z,11.90
2022-09-27T02:46:31.659Z,12.21
2022-09-27T02:49:32.189Z,11.91
2022-09-27T02:52:36.239Z,12.41
2022-09-27T02:55:11.837Z,12.25
2022-09-27T02:57:41.371Z,11.82
2022-09-27T03:00:10.118Z,12.02
2022-09-27T03:02:53.838Z,12.11
2022-09-27T03:05:25.276Z,11.74
2022-09-27T03:07:51.885Z,11.84
2022-09-27T03:10:27.043Z,11.55
2022-09-27T03:12:54.478Z,11.24
2022-09-27T03:15:21.241Z,11.03
2022-09-27T03:17:47.805Z,11.33
2022-09-27T03:20:14.465Z,11.08
2022-09-27T03:22:41.016Z,11.50
2022-09-27T03:25:08.252Z,11.38
2022-09-27T03:27:34.963Z,11.08
2022-09-27T03:30:01.522Z,11.45
2022-09-27T03:32:28.221Z,11.35
2022-09-27T03:34:55.354Z,11.55
2022-09-27T03:37:22.401Z,11.24
2022-09-27T03:39:48.958Z,11.28
2022-09-27T03:42:15.782Z,11.24
2022-09-27T03:44:43.011Z,11.46
2022-09-27T03:47:09.647Z,11.78
2022-09-27T03:49:36.214Z,10.84
2022-09-27T03:52:02.687Z,11.45
2022-09-27T03:54:29.297Z,11.49
2022-09-27T03:56:55.865Z,11.20
2022-09-27T03:59:22.846Z,11.41
2022-09-27T04:01:49.398Z,11.55
2022-09-27T04:04:15.994Z,11.43
2022-09-27T04:06:42.457Z,11.47
2022-09-27T04:09:09.026Z,11.09
2022-09-27T04:11:35.586Z,10.80
2022-09-27T04:14:02.366Z,10.78
2022-09-27T04:16:29.504Z,10.50
2022-09-27T04:18:56.197Z,10.49
2022-09-27T04:21:22.806Z,10.48
2022-09-27T04:23:49.457Z,10.27
2022-09-27T04:26:16.311Z,10.02
2022-09-27T04:28:43.090Z,10.22
2022-09-27T04:31:09.934Z,10.46
2022-09-27T04:33:36.558Z,10.14
2022-09-27T04:36:21.724Z,10.12
2022-09-27T04:38:48.539Z,10.12
2022-09-27T04:41:15.477Z,10.39
2022-09-27T04:43:42.078Z,10.45
2022-09-27T04:46:08.917Z,10.69
2022-09-27T04:48:35.551Z,10.33
2022-09-27T04:51:02.647Z,10.21
2022-09-27T04:53:29.862Z,10.14
2022-09-27T04:55:56.627Z,9.99
2022-09-27T04:58:24.157Z,9.79
2022-09-27T05:00:55.690Z,10.06
2022-09-27T05:03:22.942Z,9.90
2022-09-27T05:05:49.476Z,10.26
2022-09-27T05:08:16.210Z,9.75
2022-09-27T05:10:43.007Z,10.21
2022-09-27T05:13:09.571Z,10.28
2022-09-27T05:15:36.374Z,10.45
2022-09-27T05:18:02.921Z,10.11
2022-09-27T05:20:29.525Z,9.97
2022-09-27T05:22:56.890Z,10.21
2022-09-27T05:25:23.485Z,9.95
2022-09-27T05:27:51.086Z,9.99
2022-09-27T05:30:17.939Z,9.84
2022-09-27T05:32:45.438Z,9.63
2022-09-27T05:35:12.166Z,9.79
2022-09-27T05:37:40.686Z,9.73
2022-09-27T05:40:22.358Z,9.91
2022-09-27T05:42:50.453Z,10.03
2022-09-27T05:45:17.477Z,9.97
2022-09-27T05:47:44.116Z,10.08
2022-09-27T05:50:10.660Z,10.33
2022-09-27T05:52:37.183Z,10.58
2022-09-27T05:55:04.181Z,10.51
2022-09-27T05:57:31.086Z,10.39
2022-09-27T05:59:57.648Z,10.22
2022-09-27T06:02:24.713Z,10.99
2022-09-27T06:04:51.295Z,10.86
2022-09-27T06:07:17.863Z,10.88
2022-09-27T06:09:44.529Z,10.52
2022-09-27T06:12:11.838Z,10.80
2022-09-27T06:14:38.398Z,10.61
2022-09-27T06:17:05.141Z,10.65
2022-09-27T06:19:31.910Z,10.55
2022-09-27T06:21:58.440Z,10.93
2022-09-27T06:24:24.931Z,10.65
2022-09-27T06:26:51.514Z,10.41
2022-09-27T06:29:17.997Z,10.45
2022-09-27T06:31:44.544Z,10.56
2022-09-27T06:34:11.037Z,10.63
2022-09-27T06:36:37.697Z,10.60
2022-09-27T06:39:04.436Z,10.85
2022-09-27T06:41:31.368Z,11.09
2022-09-27T06:43:57.983Z,10.99
2022-09-27T06:46:24.614Z,11.19
2022-09-27T06:48:51.184Z,11.45
2022-09-27T06:51:17.742Z,11.03
2022-09-27T06:53:44.348Z,11.58
2022-09-27T06:56:10.889Z,12.04
2022-09-27T06:58:56.272Z,11.66
2022-09-27T07:01:27.901Z,12.30
2022-09-27T07:03:54.952Z,12.55
2022-09-27T07:06:25.588Z,11.87
2022-09-27T07:08:53.509Z,11.74
2022-09-27T07:11:20.506Z,11.95
2022-09-27T07:13:47.051Z,12.20
2022-09-27T07:16:14.656Z,12.74
2022-09-27T07:18:42.163Z,12.41
2022-09-27T07:21:08.866Z,12.15
2022-09-27T07:23:37.012Z,11.81
2022-09-27T07:26:05.246Z,11.43
2022-09-27T07:28:31.976Z,11.38
2022-09-27T07:30:58.519Z,11.12
2022-09-27T07:33:25.450Z,11.21
2022-09-27T07:35:52.624Z,11.16
2022-09-27T07:38:19.937Z,10.43
2022-09-27T07:40:46.678Z,10.37
2022-09-27T07:43:13.483Z,10.87
2022-09-27T07:45:40.377Z,10.95
2022-09-27T07:48:08.181Z,11.29
2022-09-27T07:50:35.340Z,11.20
2022-09-27T07:53:01.905Z,10.75
2022-09-27T07:55:28.480Z,10.81
2022-09-27T07:58:09.241Z,10.60
2022-09-27T08:00:37.001Z,10.56
2022-09-27T08:03:17.544Z,10.67
2022-09-27T08:05:47.155Z,10.47
2022-09-27T08:08:15.101Z,10.71
2022-09-27T08:10:44.578Z,10.49
2022-09-27T08:13:11.647Z,10.30
2022-09-27T08:15:39.094Z,10.46
2022-09-27T08:18:06.549Z,11.12
2022-09-27T08:20:33.164Z,11.27
2022-09-27T08:22:59.661Z,11.55
2022-09-27T08:25:28.372Z,11.40
2022-09-27T08:28:00.036Z,10.37
2022-09-27T08:30:27.254Z,10.65
2022-09-27T08:32:58.101Z,11.05
2022-09-27T08:35:25.078Z,11.15
2022-09-27T08:37:56.284Z,11.37
2022-09-27T08:40:24.822Z,11.95
2022-09-27T08:42:58.637Z,12.63
2022-09-27T08:45:30.911Z,12.95
2022-09-27T08:48:01.837Z,12.91
2022-09-27T08:50:29.543Z,13.44
2022-09-27T08:53:14.263Z,13.50
2022-09-27T08:55:48.013Z,13.01
2022-09-27T08:58:26.515Z,12.68
2022-09-27T09:00:56.122Z,11.52
2022-09-27T09:03:26.127Z,11.11
2022-09-27T09:06:19.699Z,12.28
2022-09-27T09:09:05.019Z,12.96
2022-09-27T09:12:12.380Z,12.58
2022-09-27T09:14:45.191Z,12.44
2022-09-27T09:17:45.847Z,13.74
2022-09-27T09:20:40.373Z,14.54
2022-09-27T09:23:22.219Z,14.52
2022-09-27T09:26:17.180Z,14.89
2022-09-27T09:28:46.864Z,14.18
2022-09-27T09:31:29.068Z,14.48
2022-09-27T09:33:59.598Z,14.90
2022-09-27T09:36:32.812Z,13.57
2022-09-27T09:39:03.958Z,14.00
2022-09-27T09:41:41.798Z,14.16
2022-09-27T09:44:23.853Z,13.52
2022-09-27T09:46:54.022Z,12.83
2022-09-27T09:49:30.968Z,11.99
2022-09-27T09:52:07.956Z,12.41
2022-09-27T09:54:38.816Z,12.72
2022-09-27T09:57:11.223Z,12.78
2022-09-27T09:59:44.082Z,13.21
2022-09-27T10:02:20.187Z,12.66
2022-09-27T10:04:46.708Z,12.40
2022-09-27T10:07:26.058Z,12.38
2022-09-27T10:09:55.965Z,12.55
2022-09-27T10:12:22.743Z,12.38
2022-09-27T10:14:50.700Z,13.10
2022-09-27T10:17:21.432Z,13.99
2022-09-27T10:19:54.818Z,14.81
2022-09-27T10:22:40.293Z,15.06
2022-09-27T10:25:08.666Z,15.11
2022-09-27T10:27:45.870Z,15.54
2022-09-27T10:30:29.229Z,14.84
2022-09-27T10:33:00.243Z,13.75
2022-09-27T10:35:29.745Z,13.78
2022-09-27T10:38:18.799Z,14.52
2022-09-27T10:40:45.808Z,13.94
2022-09-27T10:43:31.751Z,13.50
2022-09-27T10:46:20.081Z,13.13
2022-09-27T10:48:46.666Z,13.24
2022-09-27T10:51:26.363Z,13.37
2022-09-27T10:53:53.727Z,13.08
2022-09-27T10:56:35.005Z,13.01
2022-09-27T10:59:04.015Z,12.34
2022-09-27T11:01:45.367Z,12.87
2022-09-27T11:04:36.441Z,11.95
2022-09-27T11:07:20.287Z,14.30
2022-09-27T11:09:54.587Z,17.46
2022-09-27T11:12:23.011Z,17.30
2022-09-27T11:14:54.615Z,15.40
2022-09-27T11:17:26.582Z,13.55
2022-09-27T11:19:56.771Z,13.45
2022-09-27T11:22:42.627Z,13.41
2022-09-27T11:25:20.339Z,14.71
2022-09-27T11:28:01.736Z,13.48
2022-09-27T11:30:57.578Z,13.63
2022-09-27T11:33:54.132Z,13.13
2022-09-27T11:36:43.888Z,13.69
2022-09-27T11:39:25.575Z,13.33
2022-09-27T11:42:00.714Z,12.80
2022-09-27T11:44:27.246Z,13.02
2022-09-27T11:47:32.503Z,12.90
2022-09-27T11:49:59.142Z,12.81
2022-09-27T11:52:31.825Z,12.78
2022-09-27T11:55:20.572Z,13.66
2022-09-27T11:57:56.889Z,14.59
2022-09-27T12:00:25.642Z,14.34
2022-09-27T12:03:21.023Z,14.69
2022-09-27T12:05:58.187Z,14.37
2022-09-27T12:08:33.259Z,15.34
2022-09-27T12:11:09.255Z,15.65
2022-09-27T12:13:48.870Z,15.38
2022-09-27T12:16:17.549Z,15.21
2022-09-27T12:18:47.995Z,15.60
2022-09-27T12:21:18.341Z,15.86
2022-09-27T12:23:54.269Z,16.24
2022-09-27T12:26:25.719Z,16.21
2022-09-27T12:28:55.297Z,15.64
2022-09-27T12:31:30.261Z,15.54
2022-09-27T12:34:20.624Z,13.37
2022-09-27T12:37:21.607Z,13.08
2022-09-27T12:39:53.349Z,13.21
2022-09-27T12:42:20.951Z,13.03
2022-09-27T12:44:51.798Z,13.19
2022-09-27T12:47:45.084Z,13.29
2022-09-27T12:50:39.827Z,13.75
2022-09-27T12:55:57.855Z,13.06
2022-09-27T12:58:29.807Z,13.13
2022-09-27T13:01:24.604Z,13.25
2022-09-27T13:04:23.305Z,12.73
2022-09-27T13:07:03.637Z,13.11
2022-09-27T13:09:43.059Z,13.66
2022-09-27T13:12:19.397Z,13.93
2022-09-27T13:15:06.589Z,14.56
2022-09-27T13:17:34.172Z,14.75
2022-09-27T13:20:37.007Z,14.33
2022-09-27T13:23:24.110Z,14.55
2022-09-27T13:26:03.689Z,14.30
2022-09-27T13:28:33.098Z,13.97
2022-09-27T13:31:01.768Z,13.72
2022-09-27T13:33:52.526Z,13.31
2022-09-27T13:36:28.289Z,13.74
2022-09-27T13:39:11.613Z,13.41
2022-09-27T13:41:48.560Z,13.61
2022-09-27T13:44:43.103Z,13.63
2022-09-27T13:47:30.469Z,12.87
2022-09-27T13:50:05.059Z,12.78
2022-09-27T13:52:35.478Z,13.17
2022-09-27T13:55:04.521Z,13.39
2022-09-27T13:57:40.341Z,12.61
2022-09-27T14:00:11.193Z,12.50
2022-09-27T14:02:55.838Z,12.66
2022-09-27T14:05:27.798Z,13.15
2022-09-27T14:07:55.435Z,13.95
2022-09-27T14:10:23.236Z,13.62
2022-09-27T14:12:52.176Z,13.39
2022-09-27T14:15:29.868Z,14.15
2022-09-27T14:17:57.595Z,13.82
2022-09-27T14:20:33.581Z,14.17
2022-09-27T14:23:01.517Z,13.42
2022-09-27T14:25:28.364Z,12.97
2022-09-27T14:27:54.906Z,13.03
2022-09-27T14:30:24.019Z,12.82
2022-09-27T14:32:53.952Z,12.92
2022-09-27T14:35:43.076Z,13.00
2022-09-27T14:38:46.660Z,12.95
2022-09-27T14:41:07.822Z,11.60
2022-09-27T14:43:36.133Z,12.50
2022-09-27T14:46:07.375Z,12.39
2022-09-27T14:48:38.985Z,12.64
2022-09-27T14:51:20.572Z,13.28
2022-09-27T14:54:00.693Z,13.37
2022-09-27T14:56:34.289Z,13.48
2022-09-27T14:59:09.223Z,13.41
2022-09-27T15:01:38.107Z,13.00
2022-09-27T15:04:11.995Z,12.29
2022-09-27T15:06:38.841Z,12.72
2022-09-27T15:09:07.031Z,13.34
2022-09-27T15:11:34.665Z,13.38
2022-09-27T15:14:03.420Z,13.67
2022-09-27T15:16:31.231Z,13.70
2022-09-27T15:19:13.572Z,13.78
2022-09-27T15:21:40.280Z,13.72
2022-09-27T15:24:36.073Z,13.61
2022-09-27T15:27:02.885Z,13.08
2022-09-27T15:29:29.406Z,13.14
2022-09-27T15:32:07.194Z,13.05
2022-09-27T15:34:34.736Z,14.08
2022-09-27T15:37:03.772Z,13.97
2022-09-27T15:39:37.899Z,13.64
2022-09-27T15:42:10.444Z,14.11
2022-09-27T15:44:43.113Z,13.64
2022-09-27T15:47:40.139Z,13.22
2022-09-27T15:50:15.613Z,13.00
2022-09-27T15:52:47.452Z,12.76
2022-09-27T15:55:17.120Z,13.20
2022-09-27T15:57:45.947Z,12.85
2022-09-27T16:00:16.409Z,12.54
2022-09-27T16:02:42.874Z,12.33
2022-09-27T16:05:09.381Z,12.79
2022-09-27T16:07:36.309Z,12.68
2022-09-27T16:10:30.680Z,12.46
2022-09-27T16:12:57.337Z,12.71
2022-09-27T16:15:24.030Z,12.85
2022-09-27T16:17:50.803Z,12.56
2022-09-27T16:20:24.925Z,12.90
2022-09-27T16:22:53.889Z,12.88
2022-09-27T16:25:21.697Z,13.36
2022-09-27T16:27:49.160Z,13.13
2022-09-27T16:30:16.337Z,12.87
2022-09-27T16:32:44.208Z,13.22
2022-09-27T16:35:11.521Z,13.00
2022-09-27T16:37:38.206Z,13.24
2022-09-27T16:40:06.378Z,12.74
2022-09-27T16:42:32.922Z,12.78
2022-09-27T16:45:00.517Z,13.03
2022-09-27T16:47:28.216Z,13.02
2022-09-27T16:50:13.687Z,12.87
2022-09-27T16:52:41.544Z,12.98
2022-09-27T16:55:08.748Z,12.84
2022-09-27T16:57:36.038Z,12.93
2022-09-27T17:00:04.541Z,12.84
2022-09-27T17:02:32.553Z,13.05
2022-09-27T17:04:58.990Z,12.74
2022-09-27T17:07:25.540Z,12.70
2022-09-27T17:09:52.052Z,12.81
2022-09-27T17:12:18.546Z,12.91
2022-09-27T17:14:45.067Z,12.68
2022-09-27T17:17:11.529Z,12.51
2022-09-27T17:19:39.177Z,12.54
2022-09-27T17:22:07.363Z,12.94
2022-09-27T17:24:34.864Z,13.56
2022-09-27T17:27:02.242Z,13.32
2022-09-27T17:29:29.034Z,13.08
2022-09-27T17:31:55.621Z,13.26
2022-09-27T17:34:22.301Z,12.66
2022-09-27T17:36:50.270Z,12.37
2022-09-27T17:39:21.126Z,13.08
2022-09-27T17:41:51.083Z,12.45
2022-09-27T17:44:18.675Z,12.40
2022-09-27T17:46:46.461Z,12.19
2022-09-27T17:49:32.578Z,12.53
2022-09-27T17:51:59.306Z,12.82
2022-09-27T17:54:28.121Z,12.94
2022-09-27T17:56:56.338Z,11.84
2022-09-27T17:59:23.032Z,11.46
2022-09-27T18:01:49.997Z,11.75
2022-09-27T18:04:18.145Z,11.78
2022-09-27T18:06:47.158Z,12.03
2022-09-27T18:09:16.590Z,11.97
2022-09-27T18:11:44.209Z,11.96
2022-09-27T18:14:10.828Z,12.56
2022-09-27T18:16:42.918Z,12.42
2022-09-27T18:19:16.786Z,12.62
2022-09-27T18:21:44.056Z,12.28
2022-09-27T18:24:11.702Z,12.05
2022-09-27T18:26:39.708Z,12.22
2022-09-27T18:29:10.021Z,11.65
2022-09-27T18:31:36.688Z,11.79
2022-09-27T18:34:06.464Z,12.20
2022-09-27T18:36:33.138Z,12.29
2022-09-27T18:39:01.954Z,11.86
2022-09-27T18:41:30.874Z,12.28
2022-09-27T18:44:00.847Z,12.42
2022-09-27T18:46:37.067Z,12.42
2022-09-27T18:49:05.694Z,12.13
2022-09-27T18:51:33.145Z,11.95
2022-09-27T18:54:01.441Z,11.99
2022-09-27T18:56:28.777Z,12.30
2022-09-27T18:58:55.874Z,12.40
2022-09-27T19:01:23.598Z,12.44
2022-09-27T19:03:50.365Z,12.45
2022-09-27T19:06:26.213Z,12.51
2022-09-27T19:08:54.689Z,12.94
2022-09-27T19:11:22.406Z,12.84
2022-09-27T19:13:54.565Z,12.99
2022-09-27T19:16:22.300Z,12.75
2022-09-27T19:18:49.119Z,13.06
2022-09-27T19:21:21.317Z,13.36
2022-09-27T19:23:49.798Z,12.85
2022-09-27T19:26:18.653Z,12.83
2022-09-27T19:28:46.365Z,12.99
2022-09-27T19:31:20.994Z,12.52
2022-09-27T19:33:47.739Z,12.39
2022-09-27T19:36:16.552Z,12.99
2022-09-27T19:38:51.892Z,12.89
2022-09-27T19:41:18.790Z,12.87
2022-09-27T19:43:50.812Z,12.53
2022-09-27T19:46:18.371Z,12.73
2022-09-27T19:48:46.310Z,12.80
2022-09-27T19:51:16.470Z,12.43
2022-09-27T19:53:42.996Z,12.32
2022-09-27T19:56:10.601Z,12.38
2022-09-27T19:58:38.456Z,12.41
2022-09-27T20:01:12.888Z,11.50
2022-09-27T20:03:41.759Z,11.90
2022-09-27T20:06:10.958Z,11.89
2022-09-27T20:08:37.772Z,12.05
2022-09-27T20:11:10.068Z,12.44
2022-09-27T20:13:38.120Z,12.30
2022-09-27T20:16:22.066Z,11.61
2022-09-27T20:18:59.345Z,11.87
2022-09-27T20:21:27.749Z,12.11
2022-09-27T20:23:55.913Z,11.83
2022-09-27T20:26:23.851Z,11.88
2022-09-27T20:28:51.999Z,12.01
2022-09-27T20:31:20.825Z,11.74
2022-09-27T20:33:50.831Z,11.28
2022-09-27T20:36:19.522Z,11.63
2022-09-27T20:38:48.354Z,11.42
2022-09-27T20:41:19.524Z,11.83
2022-09-27T20:43:47.192Z,11.57
2022-09-27T20:46:16.206Z,11.06
2022-09-27T20:48:43.626Z,11.33
2022-09-27T20:51:13.749Z,11.33
2022-09-27T20:53:46.664Z,11.56
2022-09-27T20:56:21.391Z,11.65
2022-09-27T20:58:49.746Z,11.47
2022-09-27T21:01:18.807Z,11.43
2022-09-27T21:03:46.006Z,11.62
2022-09-27T21:06:13.624Z,11.37
2022-09-27T21:08:40.975Z,11.28
2022-09-27T21:11:08.831Z,11.28
2022-09-27T21:13:35.766Z,10.71
2022-09-27T21:16:03.823Z,10.82
2022-09-27T21:18:30.841Z,10.68
2022-09-27T21:21:03.591Z,10.26
2022-09-27T21:23:30.814Z,10.91
2022-09-27T21:26:03.413Z,11.10
2022-09-27T21:28:47.563Z,10.41
2022-09-27T21:31:23.226Z,10.41
2022-09-27T21:33:55.205Z,10.69
2022-09-27T21:36:23.359Z,10.57
2022-09-27T21:38:50.290Z,10.38
2022-09-27T21:41:16.982Z,10.14
2022-09-27T21:43:45.236Z,10.79
2022-09-27T21:46:19.561Z,10.77
2022-09-27T21:48:48.259Z,10.01
2022-09-27T21:51:20.063Z,9.64
2022-09-27T21:53:51.928Z,9.97
2022-09-27T21:56:19.479Z,10.29
2022-09-27T21:58:46.099Z,9.77
2022-09-27T22:01:14.770Z,10.23
2022-09-27T22:03:43.457Z,10.30
2022-09-27T22:06:16.137Z,10.59
2022-09-27T22:08:43.498Z,10.73
2022-09-27T22:11:13.512Z,10.91
2022-09-27T22:13:40.348Z,10.44
2022-09-27T22:16:09.130Z,10.63
2022-09-27T22:18:37.374Z,10.59
2022-09-27T22:21:04.891Z,10.54
2022-09-27T22:23:31.740Z,10.45
2022-09-27T22:25:58.806Z,10.06
2022-09-27T22:28:25.835Z,10.33
2022-09-27T22:30:53.030Z,10.59
2022-09-27T22:33:19.756Z,10.05
2022-09-27T22:35:47.163Z,10.48
2022-09-27T22:38:14.345Z,9.87
2022-09-27T22:40:41.452Z,10.08
2022-09-27T22:43:08.478Z,10.14
2022-09-27T22:45:34.922Z,9.97
2022-09-27T22:48:01.888Z,9.76
2022-09-27T22:50:28.434Z,9.40
2022-09-27T22:52:55.407Z,10.16
2022-09-27T22:55:21.899Z,10.00
2022-09-27T22:57:48.684Z,9.51
2022-09-27T23:00:15.297Z,9.83
2022-09-27T23:02:41.966Z,9.76
2022-09-27T23:05:09.006Z,9.91
2022-09-27T23:07:35.493Z,9.76
2022-09-27T23:10:01.986Z,10.10
2022-09-27T23:12:29.110Z,10.21
2022-09-27T23:14:55.858Z,10.23
2022-09-27T23:17:22.339Z,10.45
2022-09-27T23:19:48.797Z,10.49
2022-09-27T23:22:15.293Z,10.45
2022-09-27T23:24:41.838Z,10.90
2022-09-27T23:27:41.840Z,10.67
2022-09-27T23:30:09.988Z,10.46
2022-09-27T23:32:36.556Z,10.69
2022-09-27T23:35:03.915Z,11.13
2022-09-27T23:37:30.448Z,10.92
2022-09-27T23:39:57.363Z,11.45
2022-09-27T23:42:23.902Z,11.08
2022-09-27T23:44:53.409Z,11.23
2022-09-27T23:47:19.949Z,11.62
2022-09-27T23:49:46.871Z,11.48
2022-09-27T23:52:13.725Z,11.84
2022-09-27T23:54:40.473Z,11.65
2022-09-27T23:57:07.596Z,11.71
2022-09-27T23:59:34.280Z,11.37
